sensor_id;sensor_type;location;lat;lon;timestamp;P1;durP1;ratioP1;P2;durP2;ratioP2
69434;SDS011;56625;54.322;18.582;2023-02-15T00:00:13;18.40;;;7.70;;
69434;SDS011;56625;54.322;18.582;2023-02-15T00:03:01;16.00;;;8.30;;
69434;SDS011;56625;54.322;18.582;2023-02-15T00:05:30;15.10;;;7.70;;
69434;SDS011;56625;54.322;18.582;2023-02-15T00:07:58;18.30;;;7.30;;
69434;SDS011;56625;54.322;18.582;2023-02-15T00:10:26;15.50;;;7.80;;
69434;SDS011;56625;54.322;18.582;2023-02-15T00:12:54;19.50;;;8.60;;
69434;SDS011;56625;54.322;18.582;2023-02-15T00:15:22;17.60;;;7.80;;
69434;SDS011;56625;54.322;18.582;2023-02-15T00:17:50;18.40;;;7.80;;
69434;SDS011;56625;54.322;18.582;2023-02-15T00:20:18;17.60;;;8.20;;
69434;SDS011;56625;54.322;18.582;2023-02-15T00:22:46;17.70;;;7.60;;
69434;SDS011;56625;54.322;18.582;2023-02-15T00:25:14;17.70;;;7.70;;
69434;SDS011;56625;54.322;18.582;2023-02-15T00:27:42;17.80;;;7.80;;
69434;SDS011;56625;54.322;18.582;2023-02-15T00:30:10;16.70;;;7.50;;
69434;SDS011;56625;54.322;18.582;2023-02-15T00:32:39;16.60;;;7.50;;
69434;SDS011;56625;54.322;18.582;2023-02-15T00:35:06;15.20;;;7.20;;
69434;SDS011;56625;54.322;18.582;2023-02-15T00:37:34;18.20;;;8.00;;
69434;SDS011;56625;54.322;18.582;2023-02-15T00:40:03;16.90;;;7.80;;
69434;SDS011;56625;54.322;18.582;2023-02-15T00:42:31;19.80;;;8.00;;
69434;SDS011;56625;54.322;18.582;2023-02-15T00:44:59;15.50;;;7.70;;
69434;SDS011;56625;54.322;18.582;2023-02-15T00:47:27;16.90;;;8.20;;
69434;SDS011;56625;54.322;18.582;2023-02-15T00:49:55;22.10;;;9.00;;
69434;SDS011;56625;54.322;18.582;2023-02-15T00:52:22;20.70;;;8.70;;
69434;SDS011;56625;54.322;18.582;2023-02-15T00:54:50;19.70;;;8.80;;
69434;SDS011;56625;54.322;18.582;2023-02-15T00:57:18;19.50;;;8.60;;
69434;SDS011;56625;54.322;18.582;2023-02-15T00:59:46;17.40;;;8.50;;
69434;SDS011;56625;54.322;18.582;2023-02-15T01:02:14;19.50;;;8.60;;
69434;SDS011;56625;54.322;18.582;2023-02-15T01:04:42;19.20;;;8.90;;
69434;SDS011;56625;54.322;18.582;2023-02-15T01:07:10;19.00;;;8.90;;
69434;SDS011;56625;54.322;18.582;2023-02-15T01:09:38;20.20;;;8.50;;
69434;SDS011;56625;54.322;18.582;2023-02-15T01:12:06;18.90;;;8.70;;
69434;SDS011;56625;54.322;18.582;2023-02-15T01:14:34;22.20;;;9.30;;
69434;SDS011;56625;54.322;18.582;2023-02-15T01:17:02;22.30;;;9.40;;
69434;SDS011;56625;54.322;18.582;2023-02-15T01:19:29;21.10;;;9.00;;
69434;SDS011;56625;54.322;18.582;2023-02-15T01:21:57;20.70;;;10.10;;
69434;SDS011;56625;54.322;18.582;2023-02-15T01:24:25;22.40;;;9.70;;
69434;SDS011;56625;54.322;18.582;2023-02-15T01:26:53;20.20;;;9.50;;
69434;SDS011;56625;54.322;18.582;2023-02-15T01:29:21;23.30;;;10.50;;
69434;SDS011;56625;54.322;18.582;2023-02-15T01:31:49;22.10;;;10.20;;
69434;SDS011;56625;54.322;18.582;2023-02-15T01:34:17;22.30;;;9.90;;
69434;SDS011;56625;54.322;18.582;2023-02-15T01:36:45;19.70;;;10.10;;
69434;SDS011;56625;54.322;18.582;2023-02-15T01:39:13;22.10;;;9.90;;
69434;SDS011;56625;54.322;18.582;2023-02-15T01:41:41;21.20;;;9.60;;
69434;SDS011;56625;54.322;18.582;2023-02-15T01:47:20;20.50;;;8.90;;
69434;SDS011;56625;54.322;18.582;2023-02-15T01:50:00;21.80;;;9.60;;
69434;SDS011;56625;54.322;18.582;2023-02-15T01:53:17;22.30;;;10.30;;
69434;SDS011;56625;54.322;18.582;2023-02-15T01:55:54;23.40;;;9.60;;
69434;SDS011;56625;54.322;18.582;2023-02-15T01:58:32;22.60;;;9.80;;
69434;SDS011;56625;54.322;18.582;2023-02-15T02:01:03;21.50;;;9.90;;
69434;SDS011;56625;54.322;18.582;2023-02-15T02:06:35;20.90;;;9.40;;
69434;SDS011;56625;54.322;18.582;2023-02-15T02:09:04;20.50;;;9.30;;
69434;SDS011;56625;54.322;18.582;2023-02-15T02:11:32;22.80;;;10.30;;
69434;SDS011;56625;54.322;18.582;2023-02-15T02:14:02;20.10;;;9.10;;
69434;SDS011;56625;54.322;18.582;2023-02-15T02:16:42;22.70;;;9.40;;
69434;SDS011;56625;54.322;18.582;2023-02-15T02:34:29;22.60;;;9.10;;
69434;SDS011;56625;54.322;18.582;2023-02-15T02:40:43;23.20;;;10.30;;
69434;SDS011;56625;54.322;18.582;2023-02-15T02:46:50;24.30;;;10.10;;
69434;SDS011;56625;54.322;18.582;2023-02-15T02:49:47;22.70;;;9.90;;
69434;SDS011;56625;54.322;18.582;2023-02-15T02:55:43;22.70;;;9.90;;
69434;SDS011;56625;54.322;18.582;2023-02-15T02:58:36;23.00;;;10.10;;
69434;SDS011;56625;54.322;18.582;2023-02-15T03:01:16;22.00;;;9.80;;
69434;SDS011;56625;54.322;18.582;2023-02-15T03:03:53;21.30;;;9.00;;
69434;SDS011;56625;54.322;18.582;2023-02-15T03:06:33;18.90;;;8.00;;
69434;SDS011;56625;54.322;18.582;2023-02-15T03:09:15;21.50;;;9.10;;
69434;SDS011;56625;54.322;18.582;2023-02-15T03:12:15;18.00;;;7.90;;
69434;SDS011;56625;54.322;18.582;2023-02-15T03:14:50;17.90;;;7.90;;
69434;SDS011;56625;54.322;18.582;2023-02-15T03:17:26;19.40;;;8.00;;
69434;SDS011;56625;54.322;18.582;2023-02-15T03:19:58;18.50;;;7.50;;
69434;SDS011;56625;54.322;18.582;2023-02-15T03:22:40;17.50;;;8.20;;
69434;SDS011;56625;54.322;18.582;2023-02-15T03:25:26;20.70;;;7.80;;
69434;SDS011;56625;54.322;18.582;2023-02-15T03:28:11;22.90;;;9.00;;
69434;SDS011;56625;54.322;18.582;2023-02-15T03:30:46;20.70;;;8.90;;
69434;SDS011;56625;54.322;18.582;2023-02-15T03:33:20;19.40;;;9.00;;
69434;SDS011;56625;54.322;18.582;2023-02-15T03:36:14;20.80;;;8.30;;
69434;SDS011;56625;54.322;18.582;2023-02-15T03:41:37;19.50;;;8.10;;
69434;SDS011;56625;54.322;18.582;2023-02-15T03:44:18;21.10;;;8.60;;
69434;SDS011;56625;54.322;18.582;2023-02-15T03:47:04;20.20;;;8.70;;
69434;SDS011;56625;54.322;18.582;2023-02-15T03:49:43;21.80;;;8.40;;
69434;SDS011;56625;54.322;18.582;2023-02-15T03:52:16;18.00;;;7.80;;
69434;SDS011;56625;54.322;18.582;2023-02-15T03:54:46;18.90;;;8.00;;
69434;SDS011;56625;54.322;18.582;2023-02-15T03:57:21;18.20;;;8.10;;
69434;SDS011;56625;54.322;18.582;2023-02-15T04:00:22;20.50;;;8.20;;
69434;SDS011;56625;54.322;18.582;2023-02-15T04:06:17;19.30;;;8.40;;
69434;SDS011;56625;54.322;18.582;2023-02-15T04:08:45;18.40;;;8.30;;
69434;SDS011;56625;54.322;18.582;2023-02-15T04:11:31;20.60;;;8.70;;
69434;SDS011;56625;54.322;18.582;2023-02-15T04:13:59;17.10;;;8.00;;
69434;SDS011;56625;54.322;18.582;2023-02-15T04:16:47;19.20;;;8.70;;
69434;SDS011;56625;54.322;18.582;2023-02-15T04:19:15;21.60;;;8.70;;
69434;SDS011;56625;54.322;18.582;2023-02-15T04:22:02;19.70;;;8.30;;
69434;SDS011;56625;54.322;18.582;2023-02-15T04:24:48;20.50;;;9.40;;
69434;SDS011;56625;54.322;18.582;2023-02-15T04:27:35;20.40;;;8.50;;
69434;SDS011;56625;54.322;18.582;2023-02-15T04:30:04;19.30;;;8.40;;
69434;SDS011;56625;54.322;18.582;2023-02-15T04:32:34;20.20;;;9.20;;
69434;SDS011;56625;54.322;18.582;2023-02-15T04:35:03;17.90;;;8.40;;
69434;SDS011;56625;54.322;18.582;2023-02-15T04:37:33;18.70;;;8.40;;
69434;SDS011;56625;54.322;18.582;2023-02-15T04:40:02;18.40;;;7.70;;
69434;SDS011;56625;54.322;18.582;2023-02-15T04:42:30;19.90;;;8.40;;
69434;SDS011;56625;54.322;18.582;2023-02-15T04:44:58;17.60;;;8.40;;
69434;SDS011;56625;54.322;18.582;2023-02-15T04:47:27;18.10;;;7.80;;
69434;SDS011;56625;54.322;18.582;2023-02-15T04:49:54;19.80;;;8.80;;
69434;SDS011;56625;54.322;18.582;2023-02-15T04:52:24;20.50;;;8.60;;
69434;SDS011;56625;54.322;18.582;2023-02-15T04:54:52;20.60;;;9.50;;
69434;SDS011;56625;54.322;18.582;2023-02-15T04:57:20;21.90;;;8.80;;
69434;SDS011;56625;54.322;18.582;2023-02-15T04:59:48;20.80;;;8.90;;
69434;SDS011;56625;54.322;18.582;2023-02-15T05:02:16;19.40;;;8.90;;
69434;SDS011;56625;54.322;18.582;2023-02-15T05:04:44;20.80;;;8.90;;
69434;SDS011;56625;54.322;18.582;2023-02-15T05:07:12;18.50;;;9.00;;
69434;SDS011;56625;54.322;18.582;2023-02-15T05:09:40;19.60;;;9.00;;
69434;SDS011;56625;54.322;18.582;2023-02-15T05:12:07;18.40;;;8.60;;
69434;SDS011;56625;54.322;18.582;2023-02-15T05:14:35;17.60;;;8.00;;
69434;SDS011;56625;54.322;18.582;2023-02-15T05:17:03;19.90;;;9.40;;
69434;SDS011;56625;54.322;18.582;2023-02-15T05:19:32;19.30;;;8.90;;
69434;SDS011;56625;54.322;18.582;2023-02-15T05:22:00;19.50;;;8.90;;
69434;SDS011;56625;54.322;18.582;2023-02-15T05:24:28;19.30;;;8.10;;
69434;SDS011;56625;54.322;18.582;2023-02-15T05:27:31;17.90;;;7.70;;
69434;SDS011;56625;54.322;18.582;2023-02-15T05:30:18;17.20;;;7.30;;
69434;SDS011;56625;54.322;18.582;2023-02-15T05:32:46;18.00;;;7.30;;
69434;SDS011;56625;54.322;18.582;2023-02-15T05:35:15;15.70;;;7.00;;
69434;SDS011;56625;54.322;18.582;2023-02-15T05:37:44;16.50;;;7.10;;
69434;SDS011;56625;54.322;18.582;2023-02-15T05:40:12;18.80;;;7.50;;
69434;SDS011;56625;54.322;18.582;2023-02-15T05:42:39;19.30;;;7.50;;
69434;SDS011;56625;54.322;18.582;2023-02-15T05:45:07;17.80;;;7.50;;
69434;SDS011;56625;54.322;18.582;2023-02-15T05:47:35;17.90;;;7.50;;
69434;SDS011;56625;54.322;18.582;2023-02-15T05:50:04;16.70;;;7.20;;
69434;SDS011;56625;54.322;18.582;2023-02-15T05:52:34;17.20;;;7.30;;
69434;SDS011;56625;54.322;18.582;2023-02-15T05:55:02;16.50;;;6.90;;
69434;SDS011;56625;54.322;18.582;2023-02-15T05:57:31;16.40;;;6.80;;
69434;SDS011;56625;54.322;18.582;2023-02-15T05:59:59;20.30;;;8.40;;
69434;SDS011;56625;54.322;18.582;2023-02-15T06:02:27;19.40;;;7.60;;
69434;SDS011;56625;54.322;18.582;2023-02-15T06:04:55;17.70;;;7.30;;
69434;SDS011;56625;54.322;18.582;2023-02-15T06:07:23;18.40;;;8.00;;
69434;SDS011;56625;54.322;18.582;2023-02-15T06:09:51;17.90;;;8.10;;
69434;SDS011;56625;54.322;18.582;2023-02-15T06:12:19;15.50;;;7.10;;
69434;SDS011;56625;54.322;18.582;2023-02-15T06:14:47;16.90;;;6.90;;
69434;SDS011;56625;54.322;18.582;2023-02-15T06:17:15;17.60;;;8.40;;
69434;SDS011;56625;54.322;18.582;2023-02-15T06:19:44;17.50;;;7.50;;
69434;SDS011;56625;54.322;18.582;2023-02-15T06:22:12;16.70;;;7.10;;
69434;SDS011;56625;54.322;18.582;2023-02-15T06:24:41;18.70;;;7.30;;
69434;SDS011;56625;54.322;18.582;2023-02-15T06:27:10;15.70;;;7.10;;
69434;SDS011;56625;54.322;18.582;2023-02-15T06:29:38;20.50;;;7.40;;
69434;SDS011;56625;54.322;18.582;2023-02-15T06:32:06;17.60;;;7.50;;
69434;SDS011;56625;54.322;18.582;2023-02-15T06:34:34;15.50;;;7.00;;
69434;SDS011;56625;54.322;18.582;2023-02-15T06:37:02;15.30;;;5.90;;
69434;SDS011;56625;54.322;18.582;2023-02-15T06:39:30;17.10;;;7.40;;
69434;SDS011;56625;54.322;18.582;2023-02-15T06:41:58;19.00;;;8.10;;
69434;SDS011;56625;54.322;18.582;2023-02-15T06:44:27;16.20;;;7.40;;
69434;SDS011;56625;54.322;18.582;2023-02-15T06:46:54;22.20;;;8.40;;
69434;SDS011;56625;54.322;18.582;2023-02-15T06:49:22;19.40;;;8.10;;
69434;SDS011;56625;54.322;18.582;2023-02-15T06:51:50;19.70;;;8.20;;
69434;SDS011;56625;54.322;18.582;2023-02-15T06:54:18;20.60;;;6.50;;
69434;SDS011;56625;54.322;18.582;2023-02-15T06:56:46;18.60;;;7.80;;
69434;SDS011;56625;54.322;18.582;2023-02-15T06:59:14;17.80;;;7.50;;
69434;SDS011;56625;54.322;18.582;2023-02-15T07:01:42;18.20;;;8.00;;
69434;SDS011;56625;54.322;18.582;2023-02-15T07:04:09;20.30;;;7.20;;
69434;SDS011;56625;54.322;18.582;2023-02-15T07:06:37;12.20;;;4.20;;
69434;SDS011;56625;54.322;18.582;2023-02-15T07:09:05;18.60;;;7.50;;
69434;SDS011;56625;54.322;18.582;2023-02-15T07:11:34;20.90;;;8.40;;
69434;SDS011;56625;54.322;18.582;2023-02-15T07:14:21;14.60;;;5.30;;
69434;SDS011;56625;54.322;18.582;2023-02-15T07:16:49;17.60;;;7.90;;
69434;SDS011;56625;54.322;18.582;2023-02-15T07:19:16;19.20;;;8.20;;
69434;SDS011;56625;54.322;18.582;2023-02-15T07:21:44;21.90;;;8.40;;
69434;SDS011;56625;54.322;18.582;2023-02-15T07:24:13;14.00;;;6.20;;
69434;SDS011;56625;54.322;18.582;2023-02-15T07:26:41;21.10;;;8.30;;
69434;SDS011;56625;54.322;18.582;2023-02-15T07:29:09;17.50;;;6.80;;
69434;SDS011;56625;54.322;18.582;2023-02-15T07:31:37;14.40;;;5.80;;
69434;SDS011;56625;54.322;18.582;2023-02-15T07:34:06;16.40;;;6.50;;
69434;SDS011;56625;54.322;18.582;2023-02-15T07:36:35;19.00;;;7.00;;
69434;SDS011;56625;54.322;18.582;2023-02-15T07:39:03;18.40;;;7.30;;
69434;SDS011;56625;54.322;18.582;2023-02-15T07:41:31;13.10;;;3.70;;
69434;SDS011;56625;54.322;18.582;2023-02-15T07:43:59;17.60;;;6.30;;
69434;SDS011;56625;54.322;18.582;2023-02-15T07:46:26;10.10;;;4.20;;
69434;SDS011;56625;54.322;18.582;2023-02-15T07:48:55;18.90;;;8.60;;
69434;SDS011;56625;54.322;18.582;2023-02-15T07:51:23;17.80;;;6.80;;
69434;SDS011;56625;54.322;18.582;2023-02-15T07:53:51;17.30;;;7.50;;
69434;SDS011;56625;54.322;18.582;2023-02-15T07:56:19;20.30;;;8.80;;
69434;SDS011;56625;54.322;18.582;2023-02-15T07:58:47;18.20;;;7.60;;
69434;SDS011;56625;54.322;18.582;2023-02-15T08:01:30;18.50;;;7.30;;
69434;SDS011;56625;54.322;18.582;2023-02-15T08:04:05;19.10;;;8.10;;
69434;SDS011;56625;54.322;18.582;2023-02-15T08:06:35;18.10;;;8.00;;
69434;SDS011;56625;54.322;18.582;2023-02-15T08:09:05;18.20;;;8.10;;
69434;SDS011;56625;54.322;18.582;2023-02-15T08:11:36;16.00;;;6.30;;
69434;SDS011;56625;54.322;18.582;2023-02-15T08:14:10;15.30;;;6.80;;
69434;SDS011;56625;54.322;18.582;2023-02-15T08:19:23;13.50;;;6.00;;
69434;SDS011;56625;54.322;18.582;2023-02-15T08:22:01;14.20;;;4.70;;
69434;SDS011;56625;54.322;18.582;2023-02-15T08:24:33;12.90;;;4.90;;
69434;SDS011;56625;54.322;18.582;2023-02-15T08:27:08;18.30;;;7.90;;
69434;SDS011;56625;54.322;18.582;2023-02-15T08:29:38;13.70;;;4.90;;
69434;SDS011;56625;54.322;18.582;2023-02-15T08:32:08;21.50;;;8.70;;
69434;SDS011;56625;54.322;18.582;2023-02-15T08:34:40;17.30;;;7.90;;
69434;SDS011;56625;54.322;18.582;2023-02-15T08:37:09;15.00;;;5.50;;
69434;SDS011;56625;54.322;18.582;2023-02-15T08:39:37;22.10;;;10.00;;
69434;SDS011;56625;54.322;18.582;2023-02-15T08:42:05;15.00;;;5.30;;
69434;SDS011;56625;54.322;18.582;2023-02-15T08:44:33;17.20;;;7.00;;
69434;SDS011;56625;54.322;18.582;2023-02-15T08:47:00;16.60;;;7.80;;
69434;SDS011;56625;54.322;18.582;2023-02-15T08:49:31;16.20;;;7.40;;
69434;SDS011;56625;54.322;18.582;2023-02-15T08:51:59;22.50;;;8.80;;
69434;SDS011;56625;54.322;18.582;2023-02-15T08:54:27;18.00;;;6.50;;
69434;SDS011;56625;54.322;18.582;2023-02-15T08:56:55;16.90;;;7.30;;
69434;SDS011;56625;54.322;18.582;2023-02-15T08:59:23;14.50;;;5.60;;
69434;SDS011;56625;54.322;18.582;2023-02-15T09:01:54;13.40;;;5.80;;
69434;SDS011;56625;54.322;18.582;2023-02-15T09:04:22;16.40;;;6.90;;
69434;SDS011;56625;54.322;18.582;2023-02-15T09:06:51;15.60;;;6.00;;
69434;SDS011;56625;54.322;18.582;2023-02-15T09:09:19;19.40;;;8.60;;
69434;SDS011;56625;54.322;18.582;2023-02-15T09:11:50;18.00;;;6.70;;
69434;SDS011;56625;54.322;18.582;2023-02-15T09:14:26;10.60;;;4.70;;
69434;SDS011;56625;54.322;18.582;2023-02-15T09:16:54;16.40;;;6.90;;
69434;SDS011;56625;54.322;18.582;2023-02-15T09:19:23;19.20;;;8.90;;
69434;SDS011;56625;54.322;18.582;2023-02-15T09:21:52;16.00;;;5.20;;
69434;SDS011;56625;54.322;18.582;2023-02-15T09:24:21;21.60;;;8.30;;
69434;SDS011;56625;54.322;18.582;2023-02-15T09:26:49;20.50;;;8.70;;
69434;SDS011;56625;54.322;18.582;2023-02-15T09:29:18;17.00;;;6.00;;
69434;SDS011;56625;54.322;18.582;2023-02-15T09:31:49;11.60;;;4.40;;
69434;SDS011;56625;54.322;18.582;2023-02-15T09:34:20;16.30;;;6.60;;
69434;SDS011;56625;54.322;18.582;2023-02-15T09:36:49;13.30;;;5.30;;
69434;SDS011;56625;54.322;18.582;2023-02-15T09:39:24;14.20;;;4.80;;
69434;SDS011;56625;54.322;18.582;2023-02-15T09:45:26;18.50;;;7.20;;
69434;SDS011;56625;54.322;18.582;2023-02-15T09:48:38;13.00;;;5.60;;
69434;SDS011;56625;54.322;18.582;2023-02-15T09:51:37;14.90;;;6.20;;
69434;SDS011;56625;54.322;18.582;2023-02-15T09:57:30;12.50;;;4.60;;
69434;SDS011;56625;54.322;18.582;2023-02-15T10:00:22;11.90;;;4.40;;
69434;SDS011;56625;54.322;18.582;2023-02-15T10:03:25;9.70;;;3.10;;
69434;SDS011;56625;54.322;18.582;2023-02-15T10:09:00;12.90;;;5.20;;
69434;SDS011;56625;54.322;18.582;2023-02-15T10:21:07;13.40;;;5.20;;
69434;SDS011;56625;54.322;18.582;2023-02-15T10:24:19;13.30;;;5.10;;
69434;SDS011;56625;54.322;18.582;2023-02-15T10:27:07;17.60;;;6.80;;
69434;SDS011;56625;54.322;18.582;2023-02-15T10:30:13;20.50;;;8.00;;
69434;SDS011;56625;54.322;18.582;2023-02-15T10:33:04;9.90;;;3.90;;
69434;SDS011;56625;54.322;18.582;2023-02-15T10:38:48;24.80;;;8.70;;
69434;SDS011;56625;54.322;18.582;2023-02-15T10:41:52;20.80;;;8.30;;
69434;SDS011;56625;54.322;18.582;2023-02-15T10:47:35;17.50;;;7.30;;
69434;SDS011;56625;54.322;18.582;2023-02-15T10:50:49;15.40;;;5.50;;
69434;SDS011;56625;54.322;18.582;2023-02-15T10:56:25;15.80;;;7.30;;
69434;SDS011;56625;54.322;18.582;2023-02-15T11:05:36;21.20;;;9.00;;
69434;SDS011;56625;54.322;18.582;2023-02-15T11:08:10;20.10;;;8.40;;
69434;SDS011;56625;54.322;18.582;2023-02-15T11:10:45;22.90;;;9.30;;
69434;SDS011;56625;54.322;18.582;2023-02-15T11:13:22;14.60;;;6.20;;
69434;SDS011;56625;54.322;18.582;2023-02-15T11:16:02;18.20;;;7.40;;
69434;SDS011;56625;54.322;18.582;2023-02-15T11:18:45;17.80;;;7.00;;
69434;SDS011;56625;54.322;18.582;2023-02-15T11:21:26;16.00;;;6.90;;
69434;SDS011;56625;54.322;18.582;2023-02-15T11:23:57;22.00;;;11.00;;
69434;SDS011;56625;54.322;18.582;2023-02-15T11:26:33;20.40;;;8.30;;
69434;SDS011;56625;54.322;18.582;2023-02-15T11:29:25;19.70;;;7.70;;
69434;SDS011;56625;54.322;18.582;2023-02-15T11:37:53;26.40;;;11.40;;
69434;SDS011;56625;54.322;18.582;2023-02-15T11:40:30;17.50;;;7.60;;
69434;SDS011;56625;54.322;18.582;2023-02-15T11:43:12;23.00;;;9.20;;
69434;SDS011;56625;54.322;18.582;2023-02-15T11:45:55;28.70;;;11.80;;
69434;SDS011;56625;54.322;18.582;2023-02-15T11:48:23;18.70;;;7.60;;
69434;SDS011;56625;54.322;18.582;2023-02-15T11:50:52;18.20;;;7.10;;
69434;SDS011;56625;54.322;18.582;2023-02-15T11:53:21;22.90;;;8.80;;
69434;SDS011;56625;54.322;18.582;2023-02-15T11:55:55;25.80;;;12.10;;
69434;SDS011;56625;54.322;18.582;2023-02-15T11:58:38;18.20;;;6.80;;
69434;SDS011;56625;54.322;18.582;2023-02-15T12:01:24;15.30;;;6.70;;
69434;SDS011;56625;54.322;18.582;2023-02-15T12:10:18;17.30;;;6.10;;
69434;SDS011;56625;54.322;18.582;2023-02-15T12:13:16;18.60;;;7.40;;
69434;SDS011;56625;54.322;18.582;2023-02-15T12:15:49;19.60;;;6.70;;
69434;SDS011;56625;54.322;18.582;2023-02-15T12:18:40;17.80;;;7.80;;
69434;SDS011;56625;54.322;18.582;2023-02-15T12:21:24;22.20;;;9.40;;
69434;SDS011;56625;54.322;18.582;2023-02-15T12:24:00;11.80;;;4.80;;
69434;SDS011;56625;54.322;18.582;2023-02-15T12:26:36;19.30;;;7.40;;
69434;SDS011;56625;54.322;18.582;2023-02-15T12:29:16;21.50;;;10.00;;
69434;SDS011;56625;54.322;18.582;2023-02-15T12:31:51;15.60;;;7.50;;
69434;SDS011;56625;54.322;18.582;2023-02-15T12:34:31;15.30;;;7.40;;
69434;SDS011;56625;54.322;18.582;2023-02-15T12:37:10;15.50;;;5.80;;
69434;SDS011;56625;54.322;18.582;2023-02-15T12:39:56;20.00;;;7.90;;
69434;SDS011;56625;54.322;18.582;2023-02-15T12:42:42;21.80;;;9.90;;
69434;SDS011;56625;54.322;18.582;2023-02-15T12:45:27;25.50;;;10.40;;
69434;SDS011;56625;54.322;18.582;2023-02-15T12:50:48;16.80;;;7.00;;
69434;SDS011;56625;54.322;18.582;2023-02-15T12:53:33;16.90;;;6.10;;
69434;SDS011;56625;54.322;18.582;2023-02-15T12:56:05;15.90;;;6.80;;
69434;SDS011;56625;54.322;18.582;2023-02-15T12:58:40;20.50;;;8.50;;
69434;SDS011;56625;54.322;18.582;2023-02-15T13:01:18;15.20;;;6.20;;
69434;SDS011;56625;54.322;18.582;2023-02-15T13:03:55;19.90;;;8.90;;
69434;SDS011;56625;54.322;18.582;2023-02-15T13:06:27;23.50;;;9.50;;
69434;SDS011;56625;54.322;18.582;2023-02-15T13:09:06;19.50;;;7.70;;
69434;SDS011;56625;54.322;18.582;2023-02-15T13:11:46;22.30;;;9.80;;
69434;SDS011;56625;54.322;18.582;2023-02-15T13:14:25;13.40;;;5.00;;
69434;SDS011;56625;54.322;18.582;2023-02-15T13:17:01;10.70;;;4.70;;
69434;SDS011;56625;54.322;18.582;2023-02-15T13:19:43;18.10;;;7.00;;
69434;SDS011;56625;54.322;18.582;2023-02-15T13:22:17;25.40;;;10.70;;
69434;SDS011;56625;54.322;18.582;2023-02-15T13:24:58;24.40;;;9.90;;
69434;SDS011;56625;54.322;18.582;2023-02-15T13:27:38;18.40;;;7.80;;
69434;SDS011;56625;54.322;18.582;2023-02-15T13:30:22;20.10;;;9.80;;
69434;SDS011;56625;54.322;18.582;2023-02-15T13:33:05;19.70;;;8.60;;
69434;SDS011;56625;54.322;18.582;2023-02-15T13:35:48;21.30;;;7.20;;
69434;SDS011;56625;54.322;18.582;2023-02-15T13:50:40;16.00;;;6.70;;
69434;SDS011;56625;54.322;18.582;2023-02-15T13:53:28;17.10;;;7.30;;
69434;SDS011;56625;54.322;18.582;2023-02-15T13:56:25;24.60;;;8.70;;
69434;SDS011;56625;54.322;18.582;2023-02-15T14:05:32;17.30;;;7.40;;
69434;SDS011;56625;54.322;18.582;2023-02-15T14:08:21;22.00;;;8.60;;
69434;SDS011;56625;54.322;18.582;2023-02-15T14:14:05;32.50;;;11.60;;
69434;SDS011;56625;54.322;18.582;2023-02-15T14:20:08;15.40;;;6.70;;
69434;SDS011;56625;54.322;18.582;2023-02-15T14:22:58;25.50;;;11.40;;
69434;SDS011;56625;54.322;18.582;2023-02-15T14:29:20;25.70;;;11.10;;
69434;SDS011;56625;54.322;18.582;2023-02-15T14:32:09;25.40;;;12.60;;
69434;SDS011;56625;54.322;18.582;2023-02-15T14:40:12;24.70;;;10.90;;
69434;SDS011;56625;54.322;18.582;2023-02-15T14:43:59;28.50;;;12.30;;
69434;SDS011;56625;54.322;18.582;2023-02-15T14:49:40;24.90;;;11.20;;
69434;SDS011;56625;54.322;18.582;2023-02-15T14:52:10;30.40;;;13.30;;
69434;SDS011;56625;54.322;18.582;2023-02-15T15:02:17;22.50;;;10.00;;
69434;SDS011;56625;54.322;18.582;2023-02-15T15:07:22;34.20;;;15.70;;
69434;SDS011;56625;54.322;18.582;2023-02-15T15:12:52;37.30;;;14.50;;
69434;SDS011;56625;54.322;18.582;2023-02-15T15:18:07;31.70;;;14.30;;
69434;SDS011;56625;54.322;18.582;2023-02-15T15:20:49;33.00;;;14.50;;
69434;SDS011;56625;54.322;18.582;2023-02-15T15:34:18;30.70;;;13.10;;
69434;SDS011;56625;54.322;18.582;2023-02-15T15:43:11;31.00;;;14.50;;
69434;SDS011;56625;54.322;18.582;2023-02-15T15:48:54;33.00;;;15.40;;
69434;SDS011;56625;54.322;18.582;2023-02-15T15:51:33;31.10;;;14.40;;
69434;SDS011;56625;54.322;18.582;2023-02-15T15:54:04;33.40;;;14.70;;
69434;SDS011;56625;54.322;18.582;2023-02-15T15:56:34;35.10;;;15.00;;
69434;SDS011;56625;54.322;18.582;2023-02-15T15:59:06;32.30;;;13.00;;
69434;SDS011;56625;54.322;18.582;2023-02-15T16:01:42;34.20;;;14.30;;
69434;SDS011;56625;54.322;18.582;2023-02-15T16:04:14;29.50;;;12.80;;
69434;SDS011;56625;54.322;18.582;2023-02-15T16:06:51;22.00;;;8.90;;
69434;SDS011;56625;54.322;18.582;2023-02-15T16:09:22;34.30;;;14.90;;
69434;SDS011;56625;54.322;18.582;2023-02-15T16:11:54;33.20;;;15.00;;
69434;SDS011;56625;54.322;18.582;2023-02-15T16:14:34;36.10;;;16.10;;
69434;SDS011;56625;54.322;18.582;2023-02-15T16:17:07;20.90;;;8.40;;
69434;SDS011;56625;54.322;18.582;2023-02-15T16:19:43;21.70;;;8.50;;
69434;SDS011;56625;54.322;18.582;2023-02-15T16:22:23;31.60;;;14.40;;
69434;SDS011;56625;54.322;18.582;2023-02-15T16:27:47;19.50;;;7.50;;
69434;SDS011;56625;54.322;18.582;2023-02-15T16:30:29;16.60;;;6.00;;
69434;SDS011;56625;54.322;18.582;2023-02-15T16:35:41;33.10;;;13.50;;
69434;SDS011;56625;54.322;18.582;2023-02-15T16:41:17;40.90;;;17.00;;
69434;SDS011;56625;54.322;18.582;2023-02-15T16:43:53;36.90;;;16.30;;
69434;SDS011;56625;54.322;18.582;2023-02-15T16:46:42;38.10;;;17.20;;
69434;SDS011;56625;54.322;18.582;2023-02-15T16:49:35;37.90;;;16.10;;
69434;SDS011;56625;54.322;18.582;2023-02-15T16:52:05;37.70;;;16.90;;
69434;SDS011;56625;54.322;18.582;2023-02-15T16:54:35;30.00;;;12.10;;
69434;SDS011;56625;54.322;18.582;2023-02-15T16:57:03;35.90;;;14.10;;
69434;SDS011;56625;54.322;18.582;2023-02-15T16:59:49;42.30;;;17.70;;
69434;SDS011;56625;54.322;18.582;2023-02-15T17:02:27;41.90;;;17.30;;
69434;SDS011;56625;54.322;18.582;2023-02-15T17:05:19;37.50;;;16.50;;
69434;SDS011;56625;54.322;18.582;2023-02-15T17:10:33;37.00;;;14.30;;
69434;SDS011;56625;54.322;18.582;2023-02-15T17:13:12;41.80;;;16.80;;
69434;SDS011;56625;54.322;18.582;2023-02-15T17:18:39;42.30;;;14.50;;
69434;SDS011;56625;54.322;18.582;2023-02-15T17:21:17;45.70;;;20.00;;
69434;SDS011;56625;54.322;18.582;2023-02-15T17:23:50;43.50;;;17.90;;
69434;SDS011;56625;54.322;18.582;2023-02-15T17:26:21;44.90;;;18.60;;
69434;SDS011;56625;54.322;18.582;2023-02-15T17:28:59;44.80;;;18.40;;
69434;SDS011;56625;54.322;18.582;2023-02-15T17:31:39;50.20;;;20.80;;
69434;SDS011;56625;54.322;18.582;2023-02-15T17:37:28;36.70;;;14.30;;
69434;SDS011;56625;54.322;18.582;2023-02-15T17:40:27;42.70;;;16.60;;
69434;SDS011;56625;54.322;18.582;2023-02-15T17:43:00;49.10;;;19.20;;
69434;SDS011;56625;54.322;18.582;2023-02-15T17:45:36;49.80;;;18.90;;
69434;SDS011;56625;54.322;18.582;2023-02-15T17:48:22;46.00;;;19.20;;
69434;SDS011;56625;54.322;18.582;2023-02-15T17:51:00;46.10;;;18.10;;
69434;SDS011;56625;54.322;18.582;2023-02-15T17:53:31;45.00;;;16.80;;
69434;SDS011;56625;54.322;18.582;2023-02-15T17:55:59;49.40;;;19.20;;
69434;SDS011;56625;54.322;18.582;2023-02-15T17:58:27;51.80;;;20.00;;
69434;SDS011;56625;54.322;18.582;2023-02-15T18:00:57;47.50;;;20.30;;
69434;SDS011;56625;54.322;18.582;2023-02-15T18:03:48;53.70;;;20.20;;